Time;durP1;ratioP1;P1;durP2;ratioP2;P2;SDS_P1;SDS_P2;PMS_P1;PMS_P2;Temp;Humidity;BMP_temperature;BMP_pressure;BME280_temperature;BME280_humidity;BME280_pressure;Samples;Min_cycle;Max_cycle;Signal;HPM_P1;HPM_P2
2023/05/28 00:01:41;;;;;;;12.88;9.88;;;15.70;85.10;;;;;;5013647;28;20525;-50
2023/05/28 00:04:27;;;;;;;14.20;10.70;;;15.70;85.60;;;;;;5015252;28;20022;-51
2023/05/28 00:07:13;;;;;;;14.07;10.98;;;15.70;85.60;;;;;;5014211;28;20025;-50
2023/05/28 00:09:59;;;;;;;13.20;11.32;;;15.80;85.90;;;;;;5014848;28;20023;-50
2023/05/28 00:12:45;;;;;;;12.93;10.07;;;15.80;86.50;;;;;;5015684;28;20022;-54
2023/05/28 00:15:31;;;;;;;13.00;10.18;;;15.80;86.80;;;;;;5013816;28;20033;-51
2023/05/28 00:18:17;;;;;;;14.70;10.05;;;15.80;86.60;;;;;;5013330;28;20082;-52
2023/05/28 00:21:03;;;;;;;13.07;9.82;;;15.80;87.30;;;;;;5014179;28;20121;-52
2023/05/28 00:23:49;;;;;;;11.73;10.18;;;15.80;87.60;;;;;;5013911;28;20621;-54
2023/05/28 00:26:36;;;;;;;13.02;10.10;;;15.80;87.80;;;;;;5015025;28;20477;-51
2023/05/28 00:29:24;;;;;;;13.05;10.88;;;15.80;88.10;;;;;;5014171;28;20405;-53
2023/05/28 00:32:10;;;;;;;13.98;11.65;;;15.90;87.80;;;;;;5014073;28;20041;-54
2023/05/28 00:34:56;;;;;;;12.45;10.07;;;15.80;87.50;;;;;;5014731;28;20113;-50
2023/05/28 00:37:42;;;;;;;14.90;10.25;;;15.80;87.90;;;;;;5014238;28;20394;-53
2023/05/28 00:40:28;;;;;;;16.80;10.48;;;15.70;87.90;;;;;;5014250;28;20026;-50
2023/05/28 00:43:14;;;;;;;16.00;12.77;;;15.60;88.20;;;;;;5013912;28;20029;-50
2023/05/28 00:46:01;;;;;;;25.55;18.42;;;15.70;88.10;;;;;;5012740;28;20091;-53
2023/05/28 00:48:48;;;;;;;17.35;13.10;;;15.60;88.10;;;;;;5006180;28;20037;-49
2023/05/28 00:51:35;;;;;;;13.43;10.48;;;15.60;88.40;;;;;;5014595;28;20414;-50
2023/05/28 00:54:22;;;;;;;13.70;10.57;;;15.50;88.40;;;;;;5013417;28;20030;-53
2023/05/28 00:57:09;;;;;;;15.43;10.30;;;15.40;89.10;;;;;;5013544;28;20149;-49
2023/05/28 00:59:57;;;;;;;15.35;11.02;;;15.30;89.10;;;;;;5013396;28;20096;-55
2023/05/28 01:02:43;;;;;;;14.93;10.40;;;15.20;90.00;;;;;;5012725;28;20117;-53
2023/05/28 01:05:31;;;;;;;13.15;10.48;;;15.10;89.80;;;;;;5013232;28;20091;-49
2023/05/28 01:08:18;;;;;;;12.88;9.65;;;14.90;89.90;;;;;;5014619;28;20029;-55
2023/05/28 01:11:06;;;;;;;14.25;9.45;;;14.60;90.50;;;;;;5009648;28;20026;-54
2023/05/28 01:13:52;;;;;;;13.02;10.48;;;14.60;90.40;;;;;;4994945;28;20088;-55
2023/05/28 01:16:39;;;;;;;15.25;10.63;;;14.50;90.50;;;;;;4994634;28;20029;-50
2023/05/28 01:19:27;;;;;;;16.35;12.00;;;14.50;90.70;;;;;;5006784;28;20025;-51
2023/05/28 01:22:20;;;;;;;12.68;10.57;;;14.50;90.70;;;;;;4995310;28;20030;-51
2023/05/28 01:25:09;;;;;;;12.18;9.73;;;14.40;90.30;;;;;;4995331;28;20069;-54
2023/05/28 01:27:55;;;;;;;11.52;9.95;;;14.30;90.50;;;;;;4995296;28;20030;-52
2023/05/28 01:30:43;;;;;;;13.35;10.40;;;14.40;90.70;;;;;;4995028;28;20030;-51
2023/05/28 01:33:30;;;;;;;14.55;11.32;;;14.40;90.60;;;;;;4995059;28;20110;-52
2023/05/28 01:36:24;;;;;;;12.63;10.70;;;14.40;90.50;;;;;;4994164;28;20062;-52
2023/05/28 01:39:15;;;;;;;13.55;9.45;;;14.40;90.70;;;;;;4993988;28;20027;-51
2023/05/28 01:42:02;;;;;;;12.57;10.60;;;14.30;90.70;;;;;;4993899;28;20033;-52
2023/05/28 01:44:50;;;;;;;14.73;11.57;;;14.30;90.80;;;;;;4993134;28;20022;-51
2023/05/28 01:47:36;;;;;;;13.07;10.70;;;14.20;90.90;;;;;;4995955;28;20069;-51
2023/05/28 01:50:23;;;;;;;14.30;10.50;;;14.40;91.10;;;;;;5012435;28;20060;-53
2023/05/28 01:53:09;;;;;;;14.70;10.40;;;14.30;90.90;;;;;;5012133;28;20033;-56
2023/05/28 01:55:55;;;;;;;11.60;10.30;;;14.20;90.90;;;;;;5013245;28;20494;-51
2023/05/28 01:58:41;;;;;;;14.18;9.98;;;14.10;91.20;;;;;;5013831;28;20053;-50
2023/05/28 02:01:29;;;;;;;13.15;9.35;;;14.00;91.40;;;;;;5012503;28;20426;-50
2023/05/28 02:04:16;;;;;;;11.20;9.35;;;13.90;91.80;;;;;;5013106;28;20030;-55
2023/05/28 02:07:02;;;;;;;15.50;10.60;;;13.80;92.20;;;;;;5011190;28;20049;-52
2023/05/28 02:09:48;;;;;;;11.50;9.77;;;13.80;92.30;;;;;;5013325;28;20026;-52
2023/05/28 02:12:34;;;;;;;10.30;9.10;;;13.90;92.50;;;;;;5012919;28;20111;-55
2023/05/28 02:15:21;;;;;;;12.68;9.07;;;13.90;92.10;;;;;;5012846;28;20070;-57
2023/05/28 02:18:10;;;;;;;15.85;9.73;;;13.80;92.00;;;;;;5011679;28;20105;-51
2023/05/28 02:20:56;;;;;;;15.38;9.77;;;13.80;92.40;;;;;;5012476;28;20455;-53
2023/05/28 02:23:45;;;;;;;11.63;9.63;;;13.90;92.50;;;;;;5012133;28;20045;-55
2023/05/28 02:26:38;;;;;;;11.93;9.90;;;13.90;92.60;;;;;;5068808;28;20375;-53
2023/05/28 02:29:24;;;;;;;12.60;9.35;;;13.90;92.50;;;;;;5070552;28;20024;-55
2023/05/28 02:32:10;;;;;;;12.63;9.50;;;13.80;92.50;;;;;;5076890;28;20437;-57
2023/05/28 02:34:55;;;;;;;13.07;9.35;;;13.90;92.60;;;;;;5056102;28;20033;-53
2023/05/28 02:37:41;;;;;;;10.98;8.80;;;13.80;92.70;;;;;;5049749;28;20116;-50
2023/05/28 02:40:27;;;;;;;11.38;8.63;;;13.80;93.00;;;;;;5075488;28;20498;-54
2023/05/28 02:43:13;;;;;;;13.60;9.32;;;13.80;93.00;;;;;;5049734;28;20041;-52
2023/05/28 02:45:59;;;;;;;13.50;11.02;;;13.70;93.00;;;;;;5049758;28;20035;-54
2023/05/28 02:48:45;;;;;;;13.73;9.93;;;13.60;93.40;;;;;;5050715;28;20061;-52
2023/05/28 02:51:31;;;;;;;9.60;7.93;;;13.50;93.60;;;;;;5049403;28;20082;-50
2023/05/28 02:54:17;;;;;;;11.73;8.65;;;13.40;93.90;;;;;;5049663;28;20025;-51
2023/05/28 02:57:03;;;;;;;11.07;9.10;;;13.30;94.30;;;;;;5049126;28;20055;-53
2023/05/28 02:59:49;;;;;;;9.73;8.27;;;13.20;94.20;;;;;;5050175;28;20079;-53
2023/05/28 03:02:35;;;;;;;9.88;8.18;;;13.30;94.40;;;;;;5049440;28;20037;-50
2023/05/28 03:05:22;;;;;;;11.15;8.18;;;13.30;94.20;;;;;;5048924;28;20037;-51
2023/05/28 03:08:08;;;;;;;11.15;7.95;;;13.40;94.20;;;;;;5049581;28;20108;-50
2023/05/28 03:10:54;;;;;;;9.00;7.50;;;13.40;94.20;;;;;;5049222;28;20060;-50
2023/05/28 03:13:40;;;;;;;12.05;8.32;;;13.50;94.10;;;;;;5048451;28;20509;-51
2023/05/28 03:16:26;;;;;;;11.63;7.88;;;13.50;94.00;;;;;;5078486;28;20033;-57
2023/05/28 03:19:12;;;;;;;10.98;8.02;;;13.30;94.30;;;;;;5057297;28;20575;-56
2023/05/28 03:21:58;;;;;;;10.35;7.72;;;13.30;94.40;;;;;;5052644;28;20033;-53
2023/05/28 03:24:44;;;;;;;12.20;8.07;;;13.20;94.40;;;;;;5051549;28;20061;-52
2023/05/28 03:27:30;;;;;;;12.25;8.13;;;13.10;94.40;;;;;;5049099;28;20048;-49
2023/05/28 03:30:16;;;;;;;9.73;7.40;;;13.00;94.70;;;;;;5049332;28;20084;-52
2023/05/28 03:33:02;;;;;;;11.77;7.38;;;13.10;94.80;;;;;;5048503;28;20033;-51
2023/05/28 03:35:48;;;;;;;8.13;6.65;;;13.20;94.90;;;;;;5047993;28;20108;-52
2023/05/28 03:38:34;;;;;;;10.68;7.22;;;13.20;94.80;;;;;;5035749;28;20065;-51
2023/05/28 03:41:21;;;;;;;9.30;7.40;;;13.40;94.50;;;;;;5035556;28;20073;-51
2023/05/28 03:44:07;;;;;;;9.35;7.35;;;13.20;94.40;;;;;;5040941;28;20032;-51
2023/05/28 03:46:53;;;;;;;9.93;7.55;;;13.20;94.60;;;;;;5054359;28;20033;-52
2023/05/28 03:49:39;;;;;;;9.77;7.63;;;13.10;94.70;;;;;;5052873;28;20046;-49
2023/05/28 03:52:27;;;;;;;10.30;7.30;;;13.10;94.60;;;;;;5053864;28;20021;-57
2023/05/28 03:55:13;;;;;;;10.20;7.28;;;13.00;94.90;;;;;;5053542;28;20044;-58
2023/05/28 03:57:59;;;;;;;10.10;7.18;;;13.00;94.40;;;;;;5052872;28;20029;-58
2023/05/28 04:00:45;;;;;;;11.25;7.72;;;12.80;94.90;;;;;;5053659;28;20607;-56
2023/05/28 04:03:31;;;;;;;11.52;8.00;;;12.70;94.20;;;;;;5052985;28;20041;-57
2023/05/28 04:06:17;;;;;;;9.65;7.40;;;12.50;94.60;;;;;;5053554;28;20029;-51
2023/05/28 04:09:03;;;;;;;9.65;7.05;;;12.40;94.80;;;;;;5053056;28;20056;-53
2023/05/28 04:11:49;;;;;;;10.30;7.70;;;12.50;95.20;;;;;;5041345;28;20038;-54
2023/05/28 04:14:35;;;;;;;9.25;7.05;;;12.40;94.80;;;;;;5034571;28;20041;-52
2023/05/28 04:17:21;;;;;;;9.13;6.82;;;12.50;95.50;;;;;;5033935;28;20048;-54
2023/05/28 04:20:09;;;;;;;9.48;7.82;;;12.50;95.00;;;;;;5061629;28;20025;-56
2023/05/28 04:22:55;;;;;;;9.77;8.32;;;12.70;95.00;;;;;;5034644;28;20029;-50
2023/05/28 04:25:41;;;;;;;9.57;7.18;;;12.70;94.70;;;;;;5033825;28;20037;-53
2023/05/28 04:28:27;;;;;;;10.55;6.93;;;12.80;94.70;;;;;;5033766;28;20049;-57
2023/05/28 04:31:13;;;;;;;9.93;6.85;;;12.90;94.60;;;;;;5034493;28;20033;-57
2023/05/28 04:34:00;;;;;;;7.75;6.43;;;13.00;94.20;;;;;;5034253;28;20108;-55
2023/05/28 04:36:48;;;;;;;9.55;7.07;;;13.00;94.20;;;;;;5034072;28;20038;-54
2023/05/28 04:39:34;;;;;;;9.02;7.72;;;13.10;94.30;;;;;;5044877;28;20041;-56
2023/05/28 04:42:20;;;;;;;11.73;8.40;;;13.10;94.20;;;;;;5052788;28;20022;-54
2023/05/28 04:45:10;;;;;;;10.90;7.57;;;13.20;94.20;;;;;;5052594;28;20120;-53
2023/05/28 04:47:56;;;;;;;11.95;8.35;;;13.20;94.30;;;;;;5051847;28;20104;-54
2023/05/28 04:50:43;;;;;;;11.80;8.27;;;13.20;94.30;;;;;;5052111;28;20022;-56
2023/05/28 04:53:29;;;;;;;9.18;6.68;;;13.30;93.90;;;;;;5051971;28;20075;-54
2023/05/28 04:56:16;;;;;;;10.70;7.55;;;13.30;94.50;;;;;;5051536;28;20519;-55
2023/05/28 04:59:04;;;;;;;9.55;7.72;;;13.40;94.30;;;;;;5053338;28;20033;-59
2023/05/28 05:01:50;;;;;;;9.55;7.18;;;13.40;94.40;;;;;;5052420;28;20116;-57
2023/05/28 05:04:36;;;;;;;10.80;7.47;;;13.40;94.30;;;;;;5052328;28;20044;-59
2023/05/28 05:07:22;;;;;;;10.35;7.70;;;13.50;94.20;;;;;;5051004;28;20506;-56
2023/05/28 05:10:09;;;;;;;9.10;7.00;;;13.60;94.20;;;;;;5051830;28;20613;-56
2023/05/28 05:12:55;;;;;;;8.57;7.03;;;13.70;94.10;;;;;;5050210;28;20017;-57
2023/05/28 05:15:41;;;;;;;9.35;6.88;;;13.70;94.30;;;;;;5052209;28;20430;-56
2023/05/28 05:18:27;;;;;;;9.15;7.03;;;13.80;94.10;;;;;;5052403;28;20029;-57
2023/05/28 05:21:13;;;;;;;11.63;7.65;;;13.80;94.10;;;;;;5053067;28;20085;-58
2023/05/28 05:23:59;;;;;;;14.88;7.25;;;13.80;94.00;;;;;;5051546;28;20033;-58
2023/05/28 05:26:45;;;;;;;13.60;7.65;;;13.80;94.30;;;;;;5052419;28;20037;-57
2023/05/28 05:29:31;;;;;;;11.40;7.50;;;13.80;94.10;;;;;;5052782;28;20119;-58
2023/05/28 05:32:17;;;;;;;9.73;7.28;;;13.90;93.60;;;;;;5053940;28;20024;-58
2023/05/28 05:35:03;;;;;;;9.90;7.50;;;14.00;93.50;;;;;;5051779;28;20029;-58
2023/05/28 05:37:49;;;;;;;9.77;7.03;;;14.00;93.40;;;;;;5052662;28;20041;-57
2023/05/28 05:40:35;;;;;;;9.88;7.10;;;14.10;93.50;;;;;;5035826;28;20573;-57
2023/05/28 05:43:22;;;;;;;9.38;6.95;;;14.20;93.30;;;;;;5032815;28;20045;-57
2023/05/28 05:46:08;;;;;;;10.65;7.65;;;14.40;93.30;;;;;;5032638;28;20037;-55
2023/05/28 05:48:53;;;;;;;11.43;7.93;;;14.50;93.10;;;;;;5032803;28;20026;-58
2023/05/28 05:51:40;;;;;;;12.70;7.25;;;14.60;92.60;;;;;;5032923;28;20026;-58
2023/05/28 05:54:25;;;;;;;13.20;8.27;;;14.70;92.30;;;;;;5032947;28;20055;-57
2023/05/28 05:57:11;;;;;;;12.13;8.30;;;14.80;92.10;;;;;;5031730;28;20029;-58
2023/05/28 05:59:57;;;;;;;10.10;7.40;;;14.80;91.80;;;;;;5032634;28;20072;-58
2023/05/28 06:02:43;;;;;;;11.30;7.68;;;14.90;91.60;;;;;;5032553;28;20028;-54
2023/05/28 06:05:29;;;;;;;11.07;8.43;;;15.10;91.40;;;;;;5032374;28;20029;-57
2023/05/28 06:08:15;;;;;;;10.88;7.72;;;15.30;91.00;;;;;;5032709;28;20029;-54
2023/05/28 06:11:02;;;;;;;11.35;8.07;;;15.30;91.00;;;;;;5032773;28;20069;-50
2023/05/28 06:13:49;;;;;;;11.85;7.78;;;15.40;90.90;;;;;;5031672;28;20402;-51
2023/05/28 06:16:35;;;;;;;10.93;7.65;;;15.50;90.80;;;;;;5032517;28;20067;-54
2023/05/28 06:19:22;;;;;;;12.15;8.43;;;15.60;90.60;;;;;;5032399;28;20087;-54
2023/05/28 06:22:10;;;;;;;13.07;7.95;;;15.70;90.40;;;;;;5032134;28;20022;-53
2023/05/28 06:24:56;;;;;;;9.93;7.22;;;15.80;90.40;;;;;;5031686;28;20116;-54
2023/05/28 06:27:42;;;;;;;10.25;7.53;;;15.90;90.30;;;;;;5031362;28;20495;-52
2023/05/28 06:30:29;;;;;;;11.68;8.02;;;16.10;90.20;;;;;;5032167;28;20033;-53
2023/05/28 06:33:15;;;;;;;10.68;7.07;;;16.20;90.00;;;;;;5032538;28;20685;-55
2023/05/28 06:36:01;;;;;;;11.95;8.05;;;16.30;90.00;;;;;;5032465;28;20037;-54
2023/05/28 06:38:47;;;;;;;12.60;8.40;;;16.40;89.70;;;;;;5032414;28;20612;-56
2023/05/28 06:41:33;;;;;;;12.02;8.50;;;16.40;89.70;;;;;;5032137;28;20114;-54
2023/05/28 06:44:19;;;;;;;11.60;8.68;;;16.30;90.00;;;;;;5059358;28;20116;-51
2023/05/28 06:47:05;;;;;;;12.02;8.30;;;16.50;89.60;;;;;;5031749;28;20044;-52
2023/05/28 06:49:51;;;;;;;12.30;7.93;;;16.40;89.90;;;;;;5033925;28;20026;-53
2023/05/28 06:52:37;;;;;;;11.45;8.57;;;16.50;89.50;;;;;;5033551;28;20091;-54
2023/05/28 06:55:23;;;;;;;11.57;7.68;;;16.70;89.60;;;;;;5040578;28;20116;-55
2023/05/28 06:58:09;;;;;;;12.70;8.27;;;16.80;89.00;;;;;;5050099;28;20048;-53
2023/05/28 07:00:55;;;;;;;11.35;7.90;;;16.90;88.40;;;;;;5043817;28;20033;-52
2023/05/28 07:03:41;;;;;;;9.32;7.15;;;17.10;88.40;;;;;;5032621;28;20037;-54
2023/05/28 07:06:27;;;;;;;12.68;7.65;;;17.20;88.20;;;;;;5031681;28;20205;-54
2023/05/28 07:09:13;;;;;;;11.25;7.40;;;17.30;88.00;;;;;;5031885;28;20053;-54
2023/05/28 07:11:59;;;;;;;13.00;7.68;;;17.40;87.90;;;;;;5033198;28;20469;-53
2023/05/28 07:14:45;;;;;;;11.15;7.80;;;17.50;87.60;;;;;;5039196;28;20055;-52
2023/05/28 07:17:31;;;;;;;10.00;7.45;;;17.50;87.50;;;;;;5015654;28;20116;-53
2023/05/28 07:20:17;;;;;;;11.23;7.35;;;17.70;87.50;;;;;;5016608;28;20398;-56
2023/05/28 07:23:04;;;;;;;13.40;7.38;;;17.80;87.50;;;;;;5015418;28;20053;-56
2023/05/28 07:25:50;;;;;;;11.20;7.57;;;18.00;86.90;;;;;;5015794;28;20084;-51
2023/05/28 07:28:36;;;;;;;10.43;7.32;;;18.00;86.50;;;;;;5015153;28;20110;-54
2023/05/28 07:31:22;;;;;;;11.75;7.40;;;18.10;86.90;;;;;;5039273;28;20021;-54
2023/05/28 07:34:08;;;;;;;10.85;7.18;;;18.40;86.10;;;;;;5034610;28;20022;-54
2023/05/28 07:36:54;;;;;;;10.90;7.28;;;18.50;86.10;;;;;;5036055;28;20102;-54
2023/05/28 07:39:40;;;;;;;11.95;7.10;;;18.70;85.60;;;;;;5034677;28;20104;-50
2023/05/28 07:42:26;;;;;;;13.85;8.05;;;18.70;85.30;;;;;;5034030;28;20029;-53
2023/05/28 07:45:12;;;;;;;10.65;6.93;;;18.80;85.00;;;;;;5034795;28;20025;-52
2023/05/28 07:47:58;;;;;;;11.32;6.43;;;18.90;83.30;;;;;;5034028;28;20024;-54
2023/05/28 07:50:44;;;;;;;11.02;6.45;;;19.00;83.20;;;;;;5035285;28;20029;-56
2023/05/28 07:53:29;;;;;;;12.30;7.55;;;19.00;82.70;;;;;;5036268;28;20033;-55
2023/05/28 07:56:16;;;;;;;16.98;8.23;;;19.20;81.40;;;;;;5032911;28;20033;-56
2023/05/28 07:59:01;;;;;;;13.73;8.50;;;19.20;81.00;;;;;;5017807;28;20037;-58
2023/05/28 08:01:47;;;;;;;12.52;6.50;;;19.30;80.60;;;;;;5030944;28;20058;-56
2023/05/28 08:04:33;;;;;;;11.23;6.53;;;19.20;79.90;;;;;;5026930;28;20040;-58
2023/05/28 08:07:19;;;;;;;11.75;6.53;;;19.20;79.90;;;;;;5035926;28;20036;-58
2023/05/28 08:10:06;;;;;;;12.32;6.28;;;19.30;79.80;;;;;;5034943;28;20148;-55
2023/05/28 08:12:51;;;;;;;12.48;7.00;;;19.30;78.90;;;;;;5035467;28;20037;-54
2023/05/28 08:15:37;;;;;;;10.63;6.15;;;19.40;79.30;;;;;;5034964;28;20083;-63
2023/05/28 08:18:23;;;;;;;11.27;5.97;;;19.30;77.30;;;;;;5014272;28;20384;-57
2023/05/28 08:21:10;;;;;;;14.13;6.60;;;19.40;78.20;;;;;;5055269;28;20029;-52
2023/05/28 08:23:56;;;;;;;11.23;6.28;;;19.50;76.10;;;;;;5053519;28;20094;-57
2023/05/28 08:26:42;;;;;;;11.38;6.35;;;19.60;76.60;;;;;;5052981;28;20033;-51
2023/05/28 08:29:28;;;;;;;12.05;6.07;;;19.70;76.20;;;;;;5050289;28;20112;-51
2023/05/28 08:32:14;;;;;;;11.60;6.25;;;19.90;76.30;;;;;;5030861;28;20030;-53
2023/05/28 08:35:00;;;;;;;14.57;6.53;;;20.10;75.80;;;;;;5032415;28;20025;-51
2023/05/28 08:37:46;;;;;;;10.05;5.68;;;20.00;74.70;;;;;;5035468;28;20037;-52
2023/05/28 08:40:41;;;;;;;11.52;6.03;;;20.10;74.60;;;;;;5013488;28;20030;-51
2023/05/28 08:43:27;;;;;;;12.48;6.35;;;20.20;74.50;;;;;;5013571;28;20399;-53
2023/05/28 08:46:14;;;;;;;13.45;6.07;;;20.20;73.70;;;;;;5014405;28;20069;-49
2023/05/28 08:49:01;;;;;;;12.05;7.20;;;20.20;74.30;;;;;;5018996;28;20026;-55
2023/05/28 08:51:53;;;;;;;12.13;6.55;;;20.10;74.60;;;;;;5023908;28;20062;-53
2023/05/28 08:54:39;;;;;;;9.50;5.78;;;20.10;74.70;;;;;;5036906;28;20636;-50
2023/05/28 08:57:28;;;;;;;9.45;6.32;;;20.20;73.20;;;;;;5037203;28;20025;-48
2023/05/28 09:00:15;;;;;;;9.63;6.22;;;20.00;74.00;;;;;;5045497;28;20014;-48
2023/05/28 09:03:07;;;;;;;11.18;6.05;;;19.90;74.10;;;;;;5034989;28;20029;-49
2023/05/28 09:05:53;;;;;;;10.02;6.00;;;19.80;73.50;;;;;;5038130;28;20040;-49
2023/05/28 09:08:39;;;;;;;8.93;5.47;;;19.80;74.80;;;;;;5041760;28;20025;-51
2023/05/28 09:11:26;;;;;;;12.55;6.25;;;20.00;72.40;;;;;;5034172;28;20038;-47
2023/05/28 09:14:13;;;;;;;8.80;5.63;;;20.10;72.10;;;;;;5045559;28;20025;-49
2023/05/28 09:16:59;;;;;;;10.48;5.40;;;20.00;72.50;;;;;;5050349;28;20029;-50
2023/05/28 09:19:54;;;;;;;9.70;6.82;;;20.20;71.70;;;;;;5037690;28;20029;-48
2023/05/28 09:22:40;;;;;;;11.32;6.65;;;20.30;71.60;;;;;;5052658;28;20521;-50
2023/05/28 09:25:28;;;;;;;8.98;6.05;;;20.30;72.40;;;;;;5052021;28;20045;-48
2023/05/28 09:28:14;;;;;;;11.30;6.15;;;20.20;73.50;;;;;;5051342;28;20027;-49
2023/05/28 09:31:04;;;;;;;11.90;6.75;;;20.20;74.10;;;;;;5052021;28;20091;-48
2023/05/28 09:33:50;;;;;;;11.85;6.25;;;20.40;74.40;;;;;;5041931;28;20375;-54
2023/05/28 09:36:37;;;;;;;8.95;5.95;;;20.80;74.20;;;;;;5034055;28;20029;-52
2023/05/28 09:39:26;;;;;;;12.07;6.15;;;20.90;74.00;;;;;;5034438;28;20030;-48
2023/05/28 09:42:13;;;;;;;11.48;5.88;;;21.00;73.90;;;;;;5034953;28;20030;-48
2023/05/28 09:45:00;;;;;;;8.27;6.03;;;21.00;73.60;;;;;;5034930;28;20061;-49
2023/05/28 09:47:46;;;;;;;9.23;6.57;;;21.10;71.80;;;;;;5034625;28;20022;-51
2023/05/28 09:50:32;;;;;;;11.88;6.38;;;21.10;71.50;;;;;;5071114;28;20029;-53
2023/05/28 09:53:19;;;;;;;12.43;6.30;;;20.90;72.10;;;;;;5043313;28;20025;-49
2023/05/28 09:56:07;;;;;;;10.75;6.47;;;20.80;73.10;;;;;;5052093;28;20059;-47
2023/05/28 09:58:56;;;;;;;12.10;6.90;;;21.00;72.60;;;;;;5034387;28;20072;-52
2023/05/28 10:01:59;;;;;;;9.13;6.40;;;21.10;72.70;;;;;;5035096;28;20040;-51
2023/05/28 10:04:48;;;;;;;9.40;6.32;;;21.30;72.50;;;;;;5033573;28;20449;-47
2023/05/28 10:07:37;;;;;;;15.38;9.68;;;21.30;71.50;;;;;;5031765;28;20026;-47
2023/05/28 10:10:25;;;;;;;11.00;6.05;;;21.40;71.00;;;;;;5031961;28;20053;-49
2023/05/28 10:13:12;;;;;;;11.05;5.82;;;21.30;70.70;;;;;;5013769;28;20048;-47
2023/05/28 10:15:58;;;;;;;10.68;5.78;;;21.10;71.50;;;;;;5048480;28;20041;-49
2023/05/28 10:18:44;;;;;;;11.18;6.38;;;20.80;71.40;;;;;;5051542;28;20519;-49
2023/05/28 10:21:30;;;;;;;9.75;5.78;;;20.90;72.30;;;;;;5052282;28;20119;-49
2023/05/28 10:24:16;;;;;;;10.68;6.65;;;21.00;72.50;;;;;;5051987;28;20032;-50
2023/05/28 10:27:06;;;;;;;11.43;6.03;;;21.20;72.70;;;;;;5033738;28;20037;-52
2023/05/28 10:29:52;;;;;;;9.82;5.65;;;21.40;72.00;;;;;;5032554;28;20063;-48
2023/05/28 10:32:42;;;;;;;11.15;5.93;;;21.40;70.70;;;;;;5054644;28;20025;-49
2023/05/28 10:35:28;;;;;;;9.30;5.38;;;21.20;70.10;;;;;;5053467;28;20033;-48
2023/05/28 10:38:14;;;;;;;9.98;6.35;;;21.40;69.80;;;;;;5052043;28;20029;-47
2023/05/28 10:41:03;;;;;;;8.55;5.82;;;21.70;69.70;;;;;;5038962;28;20036;-49
2023/05/28 10:43:53;;;;;;;8.45;5.20;;;21.60;69.00;;;;;;5034105;28;20032;-48
2023/05/28 10:46:40;;;;;;;8.27;5.22;;;21.40;67.10;;;;;;5045593;28;20112;-55
2023/05/28 10:49:28;;;;;;;11.13;5.63;;;21.50;67.80;;;;;;5029419;28;20038;-49
2023/05/28 10:52:21;;;;;;;9.27;5.47;;;21.50;68.60;;;;;;5029434;28;20025;-53
2023/05/28 10:55:15;;;;;;;8.95;6.07;;;21.50;68.10;;;;;;5035855;28;20014;-53
2023/05/28 10:58:11;;;;;;;9.35;5.43;;;21.60;67.70;;;;;;5018044;28;20029;-56
2023/05/28 11:01:22;;;;;;;8.07;5.40;;;21.80;68.20;;;;;;5044246;28;20103;-52
2023/05/28 11:04:08;;;;;;;8.80;5.65;;;22.00;68.20;;;;;;5049320;28;20498;-51
2023/05/28 11:06:56;;;;;;;12.20;5.80;;;22.10;68.30;;;;;;5036056;28;20041;-52
2023/05/28 11:09:42;;;;;;;8.77;5.97;;;22.20;68.20;;;;;;5015949;28;20026;-51
2023/05/28 11:12:30;;;;;;;8.38;5.15;;;22.20;67.90;;;;;;5016634;28;20030;-51
2023/05/28 11:15:16;;;;;;;7.25;5.47;;;22.20;67.00;;;;;;5015871;28;20037;-50
2023/05/28 11:18:03;;;;;;;11.50;5.93;;;22.20;68.10;;;;;;5015330;28;20455;-53
2023/05/28 11:21:07;;;;;;;9.32;5.38;;;22.10;67.40;;;;;;5026351;28;20096;-50
2023/05/28 11:24:03;;;;;;;8.73;5.30;;;22.10;68.20;;;;;;5035591;28;20021;-52
2023/05/28 11:26:53;;;;;;;8.40;5.32;;;22.10;67.40;;;;;;5034980;28;20095;-53
2023/05/28 11:29:40;;;;;;;9.02;5.07;;;22.00;68.70;;;;;;5035714;28;20490;-51
2023/05/28 11:32:27;;;;;;;8.05;5.45;;;22.00;68.40;;;;;;5035189;28;20067;-55
2023/05/28 11:35:15;;;;;;;10.75;5.65;;;22.10;68.30;;;;;;5041072;28;20023;-50
2023/05/28 11:38:01;;;;;;;9.10;5.65;;;22.10;66.40;;;;;;5054819;28;20037;-47
2023/05/28 11:40:47;;;;;;;9.68;5.45;;;22.00;66.60;;;;;;5054142;28;20158;-47
2023/05/28 11:43:33;;;;;;;8.45;4.82;;;22.00;66.60;;;;;;5054087;28;20037;-54
2023/05/28 11:46:21;;;;;;;10.27;5.90;;;22.10;66.60;;;;;;5035317;28;20121;-53
2023/05/28 11:49:07;;;;;;;11.50;5.40;;;22.10;66.40;;;;;;5032138;28;20058;-49
2023/05/28 11:51:53;;;;;;;9.80;5.57;;;22.20;66.60;;;;;;5037735;28;20037;-54
2023/05/28 11:54:43;;;;;;;14.07;7.32;;;22.30;67.00;;;;;;5051437;28;20393;-51
2023/05/28 11:57:37;;;;;;;7.43;5.03;;;22.50;66.40;;;;;;5052752;28;20497;-53
2023/05/28 12:00:37;;;;;;;7.47;5.43;;;22.60;65.40;;;;;;5033288;28;20040;-54
2023/05/28 12:03:26;;;;;;;8.68;4.57;;;22.60;64.20;;;;;;5042875;28;20017;-53
2023/05/28 12:06:12;;;;;;;8.13;5.07;;;22.80;64.20;;;;;;5047605;28;20033;-52
2023/05/28 12:09:08;;;;;;;8.55;5.28;;;22.90;63.60;;;;;;5032605;28;20033;-54
2023/05/28 12:12:05;;;;;;;10.88;5.28;;;22.70;63.80;;;;;;5061401;28;20406;-52
2023/05/28 12:14:51;;;;;;;12.43;5.30;;;22.80;63.80;;;;;;5044301;28;20480;-54
2023/05/28 12:17:43;;;;;;;7.50;4.95;;;23.00;63.00;;;;;;5052580;28;20033;-53
2023/05/28 12:20:32;;;;;;;8.63;4.80;;;23.10;62.80;;;;;;5034095;28;20040;-50
2023/05/28 12:23:21;;;;;;;10.07;5.13;;;23.00;63.30;;;;;;5033720;28;20108;-50
2023/05/28 12:26:13;;;;;;;9.88;5.93;;;23.20;63.50;;;;;;5033946;28;20060;-50
2023/05/28 12:28:59;;;;;;;9.25;5.50;;;23.40;62.60;;;;;;5034494;28;20057;-51
2023/05/28 12:31:45;;;;;;;11.82;5.38;;;23.10;61.00;;;;;;5052083;28;20059;-50
2023/05/28 12:34:31;;;;;;;9.80;5.05;;;23.10;61.50;;;;;;5054313;28;20500;-55
2023/05/28 12:37:18;;;;;;;8.05;4.70;;;23.30;61.90;;;;;;5051272;28;20037;-53
2023/05/28 12:40:05;;;;;;;6.70;4.70;;;23.50;61.40;;;;;;5034304;28;20025;-54
2023/05/28 12:42:51;;;;;;;6.35;4.55;;;23.40;61.50;;;;;;5034335;28;20065;-53
2023/05/28 12:45:37;;;;;;;9.35;5.10;;;23.50;61.20;;;;;;5033974;28;20042;-53
2023/05/28 12:48:23;;;;;;;7.93;4.90;;;23.50;60.70;;;;;;5033043;28;20029;-50
2023/05/28 12:51:09;;;;;;;9.25;5.50;;;23.20;60.80;;;;;;5033908;28;20033;-50
2023/05/28 12:53:55;;;;;;;9.68;4.95;;;23.30;61.40;;;;;;5013491;28;20038;-48
2023/05/28 12:56:41;;;;;;;7.55;4.63;;;23.60;61.90;;;;;;5013295;28;20030;-48
2023/05/28 12:59:28;;;;;;;7.00;5.35;;;23.90;61.20;;;;;;5047488;28;20048;-50
2023/05/28 13:02:14;;;;;;;9.05;5.03;;;24.10;60.30;;;;;;5052304;28;20401;-47
2023/05/28 13:05:00;;;;;;;7.78;5.00;;;23.90;60.00;;;;;;5048808;28;20029;-46
2023/05/28 13:07:46;;;;;;;8.70;5.15;;;24.00;60.30;;;;;;5034221;28;20113;-45
2023/05/28 13:10:32;;;;;;;6.85;4.50;;;24.00;60.00;;;;;;5031830;28;20033;-48
2023/05/28 13:13:18;;;;;;;13.07;9.27;;;24.20;59.90;;;;;;5033175;28;20494;-45
2023/05/28 13:16:04;;;;;;;10.32;4.93;;;24.30;58.80;;;;;;5047317;28;20120;-47
2023/05/28 13:18:50;;;;;;;8.50;4.68;;;24.30;59.60;;;;;;5052386;28;20040;-47
2023/05/28 13:21:36;;;;;;;9.52;5.20;;;24.60;59.40;;;;;;5051131;28;20516;-44
2023/05/28 13:24:22;;;;;;;7.50;5.07;;;24.90;58.30;;;;;;5052024;28;20485;-48
2023/05/28 13:27:08;;;;;;;7.32;4.80;;;24.50;57.70;;;;;;5036021;28;20409;-45
2023/05/28 13:29:54;;;;;;;10.93;5.47;;;24.40;58.90;;;;;;5033329;28;20026;-47
2023/05/28 13:32:40;;;;;;;5.43;4.35;;;24.60;58.90;;;;;;5033188;28;20029;-47
2023/05/28 13:35:26;;;;;;;6.38;4.88;;;24.90;60.50;;;;;;5033259;28;20068;-49
2023/05/28 13:38:12;;;;;;;6.75;4.93;;;25.30;58.10;;;;;;5032615;28;20556;-47
2023/05/28 13:40:59;;;;;;;6.15;4.55;;;25.40;57.70;;;;;;5032080;28;20112;-46
2023/05/28 13:43:45;;;;;;;8.25;4.93;;;25.40;57.80;;;;;;5033053;28;20028;-46
2023/05/28 13:46:31;;;;;;;7.07;5.10;;;25.60;57.90;;;;;;5031276;28;20116;-50
2023/05/28 13:49:17;;;;;;;8.13;4.65;;;25.80;57.50;;;;;;5032713;28;20453;-49
2023/05/28 13:52:03;;;;;;;7.45;5.20;;;25.80;56.80;;;;;;5050973;28;20033;-49
2023/05/28 13:54:49;;;;;;;6.55;4.55;;;26.10;57.50;;;;;;5049886;28;20017;-51
2023/05/28 13:57:35;;;;;;;7.07;4.68;;;26.20;55.80;;;;;;5050982;28;20029;-51
2023/05/28 14:00:21;;;;;;;6.75;4.43;;;26.10;54.40;;;;;;5051269;28;20032;-50
2023/05/28 14:03:08;;;;;;;8.48;4.60;;;25.90;54.70;;;;;;5051453;28;20104;-52
2023/05/28 14:05:55;;;;;;;7.95;4.65;;;26.10;55.00;;;;;;5051919;28;20090;-53
2023/05/28 14:08:41;;;;;;;8.35;5.05;;;26.00;55.70;;;;;;5033691;28;20234;-49
2023/05/28 14:11:27;;;;;;;11.05;4.88;;;26.10;55.20;;;;;;5032784;28;20022;-49
2023/05/28 14:14:13;;;;;;;13.13;8.27;;;26.10;54.50;;;;;;5044842;28;20029;-49
2023/05/28 14:16:59;;;;;;;15.45;12.13;;;26.10;54.60;;;;;;5035555;28;20034;-51
2023/05/28 14:19:45;;;;;;;7.50;5.38;;;26.00;54.70;;;;;;5035823;28;20436;-54